MMAA/ACA METAR and TAF weather

Enter ICAO airport designator
Station Type Date Time Source
MMAA METAR 2022/01/29 12:43 UTC NOAA

MMAA 291243Z 35005KT 5SM BKN100 24/19 A2995 RMK 8/060 HZY DSNT CB S SW


Station Type Date Time Source
MMAA Decoded METAR 2022/01/29 12:43 UTC NOAA

Acapulco / G. Alvarez, Mexico (MMAA) 16-46N 099-45W
Jan 29, 2022 - 07:43 AM EST / 2022.01.29 1243 UTC
Wind: from the N (350 degrees) at 6 MPH (5 KT):0
Visibility: 5 mile(s):0
Sky conditions: mostly cloudy
Weather: Cumulonimbus clouds observed
Temperature: 75 F (24 C)
Dew Point: 66 F (19 C)
Relative Humidity: 73%
Pressure (altimeter): 29.95 in. Hg (1014 hPa)
ob: MMAA 291243Z 35005KT 5SM BKN100 24/19 A2995 RMK 8/060 HZY DSNT CB S SW
cycle: 12

Station Type Date Time Source
MMAA TAF 2022/01/29 12:27 UTC NOAA

TAF MMAA 291119Z 2912/3018 24005KT 6SM HZ SCT020 BKN100 TX29/2918Z TN22/2912Z
FM291800 26010KT 6SM HZ SCT020
FM300300 24005KT 6SM HZ SCT015
FM301800 23010KT 6SM HZ SCT020

Example: see airport list